createdAt,value
2023-03-06T00:00:48.508Z,100887.22
2023-03-06T00:03:15.303Z,100886.16
2023-03-06T00:05:42.177Z,100878.88
2023-03-06T00:08:08.933Z,100872.44
2023-03-06T00:10:35.591Z,100874.31
2023-03-06T00:13:04.807Z,100877.84
2023-03-06T00:15:31.799Z,100871.78
2023-03-06T00:17:58.995Z,100871.97
2023-03-06T00:20:26.901Z,100880.13
2023-03-06T00:22:55.869Z,100880.38
2023-03-06T00:25:22.696Z,100866.59
2023-03-06T00:27:49.801Z,100861.78
2023-03-06T00:30:19.376Z,100869.50
2023-03-06T00:32:45.981Z,100853.47
2023-03-06T00:35:13.139Z,100854.91
2023-03-06T00:37:40.640Z,100851.81
2023-03-06T00:40:13.546Z,100852.25
2023-03-06T00:42:40.191Z,100849.53
2023-03-06T00:45:07.356Z,100846.66
2023-03-06T00:47:33.997Z,100841.00
2023-03-06T00:50:00.569Z,100837.88
2023-03-06T00:52:27.181Z,100833.50
2023-03-06T00:54:53.733Z,100830.34
2023-03-06T00:57:20.247Z,100838.03
2023-03-06T00:59:46.838Z,100832.41
2023-03-06T01:02:13.628Z,100831.97
2023-03-06T01:04:40.264Z,100835.31
2023-03-06T01:07:06.798Z,100827.88
2023-03-06T01:09:33.427Z,100823.66
2023-03-06T01:12:00.448Z,100824.06
2023-03-06T01:14:27.835Z,100829.31
2023-03-06T01:16:54.526Z,100823.00
2023-03-06T01:19:21.204Z,100820.72
2023-03-06T01:21:47.740Z,100832.72
2023-03-06T01:24:14.300Z,100820.44
2023-03-06T01:26:40.827Z,100813.22
2023-03-06T01:29:07.425Z,100821.06
2023-03-06T01:31:34.265Z,100810.66
2023-03-06T01:34:00.857Z,100816.88
2023-03-06T01:36:27.344Z,100811.03
2023-03-06T01:38:53.870Z,100810.19
2023-03-06T01:41:21.491Z,100806.06
2023-03-06T01:43:48.542Z,100809.19
2023-03-06T01:46:42.153Z,100810.03
2023-03-06T01:49:36.609Z,100806.72
2023-03-06T01:52:18.265Z,100788.81
2023-03-06T01:54:59.248Z,100792.53
2023-03-06T01:57:30.483Z,100798.38
2023-03-06T02:00:06.963Z,100788.50
2023-03-06T02:02:42.098Z,100783.31
2023-03-06T02:05:08.932Z,100786.59
2023-03-06T02:07:37.249Z,100779.59
2023-03-06T02:10:05.811Z,100766.09
2023-03-06T02:12:32.740Z,100769.38
2023-03-06T02:14:59.585Z,100762.69
2023-03-06T02:17:27.790Z,100771.56
2023-03-06T02:20:09.609Z,100773.88
2023-03-06T02:23:05.437Z,100769.00
2023-03-06T02:25:40.205Z,100759.50
2023-03-06T02:28:09.919Z,100763.06
2023-03-06T02:30:37.564Z,100749.13
2023-03-06T02:33:05.337Z,100743.28
2023-03-06T02:35:35.672Z,100749.28
2023-03-06T02:38:13.536Z,100749.66
2023-03-06T02:40:43.796Z,100753.38
2023-03-06T02:43:13.067Z,100755.72
2023-03-06T02:45:45.179Z,100759.63
2023-03-06T02:48:13.290Z,100745.94
2023-03-06T02:50:40.769Z,100752.56
2023-03-06T02:53:08.286Z,100756.13
2023-03-06T02:55:35.410Z,100740.88
2023-03-06T02:58:02.281Z,100743.00
2023-03-06T03:00:30.385Z,100748.81
2023-03-06T03:02:57.402Z,100736.28
2023-03-06T03:05:24.456Z,100740.44
2023-03-06T03:07:57.569Z,100729.25
2023-03-06T03:10:24.846Z,100725.47
2023-03-06T03:12:51.628Z,100728.41
2023-03-06T03:15:19.412Z,100721.94
2023-03-06T03:17:45.958Z,100725.06
2023-03-06T03:20:16.040Z,100721.81
2023-03-06T03:22:43.008Z,100717.53
2023-03-06T03:25:09.958Z,100710.06
2023-03-06T03:27:36.728Z,100714.88
2023-03-06T03:30:04.685Z,100712.38
2023-03-06T03:32:31.326Z,100692.28
2023-03-06T03:34:58.309Z,100686.88
2023-03-06T03:37:25.903Z,100692.44
2023-03-06T03:39:53.589Z,100683.97
2023-03-06T03:42:20.175Z,100683.75
2023-03-06T03:44:46.790Z,100681.22
2023-03-06T03:47:13.612Z,100679.41
2023-03-06T03:49:40.954Z,100669.88
2023-03-06T03:52:07.728Z,100673.59
2023-03-06T03:54:35.895Z,100671.34
2023-03-06T03:57:02.430Z,100674.44
2023-03-06T03:59:33.102Z,100668.31
2023-03-06T04:02:10.768Z,100670.81
2023-03-06T04:04:46.183Z,100669.34
2023-03-06T04:07:13.291Z,100660.25
2023-03-06T04:09:40.340Z,100663.75
2023-03-06T04:12:07.944Z,100664.91
2023-03-06T04:14:36.381Z,100658.72
2023-03-06T04:17:03.558Z,100664.94
2023-03-06T04:19:30.207Z,100658.06
2023-03-06T04:21:57.548Z,100650.53
2023-03-06T04:24:24.937Z,100658.47
2023-03-06T04:26:52.261Z,100663.66
2023-03-06T04:29:18.785Z,100670.34
2023-03-06T04:31:45.751Z,100655.09
2023-03-06T04:34:12.626Z,100649.25
2023-03-06T04:36:44.984Z,100645.53
2023-03-06T04:39:13.740Z,100651.81
2023-03-06T04:41:41.421Z,100649.34
2023-03-06T04:44:08.588Z,100645.94
2023-03-06T04:46:35.885Z,100635.31
2023-03-06T04:49:02.406Z,100636.81
2023-03-06T04:51:29.472Z,100640.31
2023-03-06T04:53:56.093Z,100626.59
2023-03-06T04:56:23.242Z,100632.22
2023-03-06T04:58:49.814Z,100625.53
2023-03-06T05:01:16.386Z,100625.94
2023-03-06T05:03:43.037Z,100621.56
2023-03-06T05:06:09.588Z,100635.28
2023-03-06T05:08:36.462Z,100625.53
2023-03-06T05:11:03.253Z,100624.69
2023-03-06T05:13:30.094Z,100622.84
2023-03-06T05:16:04.852Z,100625.94
2023-03-06T05:18:32.147Z,100628.88
2023-03-06T05:20:59.918Z,100619.53
2023-03-06T05:23:31.040Z,100615.34
2023-03-06T05:25:58.139Z,100611.41
2023-03-06T05:28:25.894Z,100611.28
2023-03-06T05:30:52.532Z,100603.78
2023-03-06T05:33:19.089Z,100612.97
2023-03-06T05:35:47.371Z,100606.50
2023-03-06T05:38:15.590Z,100607.75
2023-03-06T05:40:44.007Z,100610.41
2023-03-06T05:43:11.877Z,100609.63
2023-03-06T05:45:39.558Z,100609.63
2023-03-06T05:48:07.004Z,100602.19
2023-03-06T05:50:33.552Z,100613.41
2023-03-06T05:53:00.442Z,100610.88
2023-03-06T05:55:26.970Z,100605.31
2023-03-06T05:57:53.924Z,100604.91
2023-03-06T06:00:21.300Z,100605.88
2023-03-06T06:02:47.827Z,100599.19
2023-03-06T06:05:14.721Z,100598.78
2023-03-06T06:07:42.142Z,100611.47
2023-03-06T06:10:12.204Z,100599.66
2023-03-06T06:12:38.814Z,100597.50
2023-03-06T06:15:06.537Z,100604.03
2023-03-06T06:17:33.119Z,100594.00
2023-03-06T06:19:59.645Z,100593.81
2023-03-06T06:22:26.154Z,100608.56
2023-03-06T06:24:52.725Z,100597.41
2023-03-06T06:27:19.252Z,100597.38
2023-03-06T06:29:45.804Z,100597.41
2023-03-06T06:32:12.324Z,100597.41
2023-03-06T06:34:38.827Z,100607.19
2023-03-06T06:37:05.474Z,100597.56
2023-03-06T06:39:31.969Z,100603.81
2023-03-06T06:42:20.828Z,100597.78
2023-03-06T06:44:45.031Z,100602.13
2023-03-06T06:47:23.058Z,100597.38
2023-03-06T06:49:52.672Z,100601.78
2023-03-06T06:52:19.801Z,100602.97
2023-03-06T06:54:46.443Z,100605.06
2023-03-06T06:57:13.195Z,100607.84
2023-03-06T06:59:39.751Z,100604.47
2023-03-06T07:02:06.408Z,100608.38
2023-03-06T07:04:33.113Z,100612.19
2023-03-06T07:06:59.900Z,100605.13
2023-03-06T07:09:26.548Z,100603.44
2023-03-06T07:11:53.170Z,100606.69
2023-03-06T07:14:19.728Z,100611.56
2023-03-06T07:16:46.313Z,100606.16
2023-03-06T07:19:12.876Z,100607.97
2023-03-06T07:21:39.427Z,100607.03
2023-03-06T07:24:06.146Z,100610.56
2023-03-06T07:26:34.579Z,100609.31
2023-03-06T07:29:01.710Z,100610.38
2023-03-06T07:31:28.535Z,100614.22
2023-03-06T07:33:55.251Z,100612.66
2023-03-06T07:36:23.118Z,100617.03
2023-03-06T07:38:49.832Z,100605.84
2023-03-06T07:41:17.088Z,100621.00
2023-03-06T07:43:45.046Z,100618.31
2023-03-06T07:46:14.066Z,100620.78
2023-03-06T07:48:41.728Z,100624.31
2023-03-06T07:51:15.116Z,100620.44
2023-03-06T07:53:41.657Z,100608.38
2023-03-06T07:56:09.176Z,100606.41
2023-03-06T07:58:38.002Z,100602.13
2023-03-06T08:01:06.322Z,100612.16
2023-03-06T08:03:33.330Z,100603.81
2023-03-06T08:06:11.591Z,100607.81
2023-03-06T08:08:39.887Z,100610.50
2023-03-06T08:11:08.226Z,100619.88
2023-03-06T08:13:35.377Z,100611.38
2023-03-06T08:16:02.566Z,100608.88
2023-03-06T08:18:29.291Z,100610.63
2023-03-06T08:21:04.146Z,100619.56
2023-03-06T08:23:30.727Z,100622.66
2023-03-06T08:25:59.326Z,100623.88
2023-03-06T08:28:26.116Z,100612.84
2023-03-06T08:30:52.611Z,100621.78
2023-03-06T08:33:19.166Z,100623.47
2023-03-06T08:35:45.772Z,100610.16
2023-03-06T08:38:12.392Z,100601.44
2023-03-06T08:40:38.946Z,100620.56
2023-03-06T08:43:05.522Z,100622.84
2023-03-06T08:45:32.112Z,100621.41
2023-03-06T08:47:58.669Z,100611.84
2023-03-06T08:50:25.184Z,100616.44
2023-03-06T08:52:51.695Z,100615.19
2023-03-06T08:55:18.301Z,100608.97
2023-03-06T08:57:45.778Z,100604.59
2023-03-06T09:00:13.898Z,100623.34
2023-03-06T09:02:40.648Z,100624.38
2023-03-06T09:05:08.714Z,100626.03
2023-03-06T09:07:35.588Z,100621.88
2023-03-06T09:10:02.156Z,100620.41
2023-03-06T09:12:30.760Z,100614.38
2023-03-06T09:14:57.443Z,100613.97
2023-03-06T09:17:24.094Z,100626.66
2023-03-06T09:19:52.196Z,100615.63
2023-03-06T09:22:18.794Z,100622.03
2023-03-06T09:24:45.302Z,100622.09
2023-03-06T09:27:11.827Z,100626.44
2023-03-06T09:29:38.321Z,100628.53
2023-03-06T09:32:05.050Z,100615.00
2023-03-06T09:34:31.595Z,100623.13
2023-03-06T09:36:58.078Z,100626.44
2023-03-06T09:39:26.473Z,100631.84
2023-03-06T09:41:53.788Z,100630.19
2023-03-06T09:44:25.936Z,100626.03
2023-03-06T09:47:19.992Z,100626.25
2023-03-06T09:50:13.500Z,100622.06
2023-03-06T09:52:52.754Z,100623.13
2023-03-06T09:55:28.794Z,100633.53
2023-03-06T09:58:13.257Z,100628.31
2023-03-06T10:00:44.275Z,100624.56
2023-03-06T10:03:44.845Z,100629.34
2023-03-06T10:06:22.714Z,100632.66
2023-03-06T10:08:55.286Z,100621.84
2023-03-06T10:11:52.672Z,100621.81
2023-03-06T10:14:31.811Z,100617.47
2023-03-06T10:16:58.617Z,100623.72
2023-03-06T10:19:33.416Z,100604.56
2023-03-06T10:22:24.768Z,100608.06
2023-03-06T10:25:16.089Z,100612.38
2023-03-06T10:27:56.147Z,100606.63
2023-03-06T10:31:02.665Z,100606.38
2023-03-06T10:33:44.698Z,100600.97
2023-03-06T10:36:15.948Z,100608.06
2023-03-06T10:38:44.134Z,100604.63
2023-03-06T10:41:10.628Z,100607.19
2023-03-06T10:43:42.350Z,100607.56
2023-03-06T10:46:14.552Z,100619.44
2023-03-06T10:48:42.503Z,100609.41
2023-03-06T10:51:19.043Z,100606.06
2023-03-06T10:53:54.910Z,100611.00
2023-03-06T10:56:34.183Z,100609.78
2023-03-06T10:59:11.718Z,100606.03
2023-03-06T11:01:39.994Z,100618.78
2023-03-06T11:04:26.832Z,100609.38
2023-03-06T11:07:17.096Z,100612.03
2023-03-06T11:09:56.694Z,100605.81
2023-03-06T11:12:25.865Z,100602.25
2023-03-06T11:15:14.393Z,100611.16
2023-03-06T11:18:04.297Z,100612.41
2023-03-06T11:20:51.067Z,100607.41
2023-03-06T11:23:18.312Z,100594.69
2023-03-06T11:25:50.174Z,100599.47
2023-03-06T11:28:25.595Z,100601.13
2023-03-06T11:31:20.428Z,100596.47
2023-03-06T11:33:56.379Z,100586.53
2023-03-06T11:37:00.420Z,100595.81
2023-03-06T11:39:41.810Z,100582.13
2023-03-06T11:42:17.536Z,100575.16
2023-03-06T11:44:50.111Z,100576.41
2023-03-06T11:47:18.870Z,100572.66
2023-03-06T11:49:50.465Z,100573.91
2023-03-06T11:52:26.084Z,100569.88
2023-03-06T11:54:57.671Z,100574.66
2023-03-06T11:57:37.402Z,100576.72
2023-03-06T12:00:16.945Z,100561.31
2023-03-06T12:03:12.173Z,100555.34
2023-03-06T12:05:53.342Z,100550.38
2023-03-06T12:08:47.155Z,100548.25
2023-03-06T12:11:22.904Z,100556.56
2023-03-06T12:14:05.995Z,100547.38
2023-03-06T12:16:46.115Z,100545.72
2023-03-06T12:19:36.519Z,100544.81
2023-03-06T12:22:20.711Z,100536.94
2023-03-06T12:24:59.326Z,100542.78
2023-03-06T12:27:58.163Z,100533.56
2023-03-06T12:31:02.608Z,100535.94
2023-03-06T12:34:06.874Z,100535.47
2023-03-06T12:36:50.501Z,100529.03
2023-03-06T12:39:20.646Z,100522.66
2023-03-06T12:42:22.679Z,100529.38
2023-03-06T12:45:27.152Z,100517.41
2023-03-06T12:47:56.797Z,100522.28
2023-03-06T12:50:32.835Z,100512.81
2023-03-06T12:53:04.269Z,100510.31
2023-03-06T12:55:40.988Z,100512.53
2023-03-06T12:58:29.094Z,100511.00
2023-03-06T13:01:04.224Z,100504.38
2023-03-06T13:03:52.199Z,100500.97
2023-03-06T13:06:49.849Z,100498.41
2023-03-06T13:09:52.333Z,100492.13
2023-03-06T13:12:38.354Z,100492.97
2023-03-06T13:15:45.644Z,100486.13
2023-03-06T13:18:24.043Z,100491.31
2023-03-06T13:20:57.451Z,100488.31
2023-03-06T13:23:51.510Z,100480.06
2023-03-06T13:26:24.045Z,100484.59
2023-03-06T13:28:54.009Z,100481.38
2023-03-06T13:31:27.936Z,100482.41
2023-03-06T13:33:57.107Z,100479.91
2023-03-06T13:36:31.736Z,100476.59
2023-03-06T13:39:08.657Z,100475.19
2023-03-06T13:41:37.507Z,100476.44
2023-03-06T13:44:26.091Z,100472.56
2023-03-06T13:47:01.414Z,100476.59
2023-03-06T13:49:29.309Z,100469.97
2023-03-06T13:52:04.967Z,100469.97
2023-03-06T13:55:00.556Z,100466.22
2023-03-06T13:57:57.491Z,100463.56
2023-03-06T14:00:52.451Z,100454.66
2023-03-06T14:03:28.266Z,100459.94
2023-03-06T14:05:54.962Z,100443.75
2023-03-06T14:08:27.791Z,100452.25
2023-03-06T14:11:27.106Z,100447.19
2023-03-06T14:13:56.626Z,100435.00
2023-03-06T14:16:49.370Z,100448.09
2023-03-06T14:19:18.648Z,100433.53
2023-03-06T14:21:45.121Z,100429.28
2023-03-06T14:24:17.445Z,100428.84
2023-03-06T14:26:50.152Z,100435.78
2023-03-06T14:29:22.349Z,100436.47
2023-03-06T14:31:51.500Z,100432.34
2023-03-06T14:34:22.844Z,100437.78
2023-03-06T14:36:52.678Z,100429.47
2023-03-06T14:39:25.182Z,100419.44
2023-03-06T14:41:51.725Z,100418.59
2023-03-06T14:44:24.038Z,100414.31
2023-03-06T14:47:10.806Z,100414.47
2023-03-06T14:49:37.372Z,100411.00
2023-03-06T14:52:04.161Z,100410.41
2023-03-06T14:54:36.972Z,100408.53
2023-03-06T14:57:08.226Z,100403.75
2023-03-06T14:59:52.412Z,100412.19
2023-03-06T15:02:25.820Z,100400.44
2023-03-06T15:04:57.337Z,100401.34
2023-03-06T15:07:30.250Z,100400.31
2023-03-06T15:09:57.924Z,100395.94
2023-03-06T15:12:24.326Z,100396.38
2023-03-06T15:15:07.973Z,100384.97
2023-03-06T15:17:43.770Z,100380.38
2023-03-06T15:20:52.697Z,100381.44
2023-03-06T15:23:33.947Z,100368.00
2023-03-06T15:26:13.990Z,100367.44
2023-03-06T15:28:40.613Z,100362.00
2023-03-06T15:31:10.306Z,100363.63
2023-03-06T15:33:37.572Z,100362.38
2023-03-06T15:36:06.223Z,100355.63
2023-03-06T15:38:35.834Z,100364.16
2023-03-06T15:41:04.065Z,100348.91
2023-03-06T15:43:40.190Z,100349.22
2023-03-06T15:46:07.566Z,100338.66
2023-03-06T15:48:35.386Z,100337.03
2023-03-06T15:51:02.849Z,100329.38
2023-03-06T15:53:29.495Z,100323.00
2023-03-06T15:55:57.762Z,100325.97
2023-03-06T15:58:26.773Z,100310.72
2023-03-06T16:00:53.451Z,100309.88
2023-03-06T16:03:20.106Z,100302.78
2023-03-06T16:05:46.623Z,100306.59
2023-03-06T16:08:14.933Z,100301.38
2023-03-06T16:10:43.798Z,100294.06
2023-03-06T16:13:15.022Z,100297.63
2023-03-06T16:15:50.003Z,100295.72
2023-03-06T16:18:17.377Z,100294.53
2023-03-06T16:20:44.117Z,100284.94
2023-03-06T16:23:10.911Z,100282.47
2023-03-06T16:25:39.794Z,100284.59
2023-03-06T16:28:11.540Z,100287.06
2023-03-06T16:30:38.434Z,100291.22
2023-03-06T16:33:05.083Z,100287.06
2023-03-06T16:35:31.936Z,100274.81
2023-03-06T16:37:59.815Z,100275.84
2023-03-06T16:40:37.251Z,100279.63
2023-03-06T16:43:05.175Z,100273.13
2023-03-06T16:45:39.090Z,100267.72
2023-03-06T16:48:06.647Z,100267.34
2023-03-06T16:50:38.361Z,100281.28
2023-03-06T16:53:05.761Z,100276.69
2023-03-06T16:55:33.054Z,100265.81
2023-03-06T16:57:59.695Z,100267.72
2023-03-06T17:00:31.159Z,100258.94
2023-03-06T17:02:57.800Z,100259.56
2023-03-06T17:05:24.310Z,100263.34
2023-03-06T17:07:50.843Z,100268.41
2023-03-06T17:10:19.171Z,100278.28
2023-03-06T17:12:45.736Z,100262.72
2023-03-06T17:15:12.296Z,100271.53
2023-03-06T17:17:38.944Z,100264.06
2023-03-06T17:20:11.704Z,100271.84
2023-03-06T17:22:38.716Z,100268.53
2023-03-06T17:25:06.776Z,100269.00
2023-03-06T17:27:34.473Z,100262.72
2023-03-06T17:30:01.355Z,100259.81
2023-03-06T17:32:28.443Z,100260.28
2023-03-06T17:34:55.406Z,100270.13
2023-03-06T17:37:22.022Z,100259.94
2023-03-06T17:39:48.594Z,100256.03
2023-03-06T17:42:15.522Z,100258.31
2023-03-06T17:44:42.112Z,100253.41
2023-03-06T17:47:08.676Z,100241.50
2023-03-06T17:49:35.284Z,100247.97
2023-03-06T17:52:03.558Z,100255.28
2023-03-06T17:54:30.294Z,100249.03
2023-03-06T17:57:00.865Z,100245.47
2023-03-06T17:59:28.317Z,100252.09
2023-03-06T18:01:58.831Z,100236.91
2023-03-06T18:04:26.029Z,100236.28
2023-03-06T18:06:52.750Z,100242.75
2023-03-06T18:09:19.289Z,100244.44
2023-03-06T18:11:45.818Z,100240.88
2023-03-06T18:14:12.440Z,100244.06
2023-03-06T18:16:39.019Z,100232.00
2023-03-06T18:19:05.517Z,100234.97
2023-03-06T18:21:32.057Z,100229.53
2023-03-06T18:23:58.598Z,100233.31
2023-03-06T18:26:27.548Z,100229.63
2023-03-06T18:28:56.541Z,100218.41
2023-03-06T18:31:25.763Z,100227.56
2023-03-06T18:33:53.288Z,100208.53
2023-03-06T18:36:22.364Z,100210.13
2023-03-06T18:38:49.869Z,100195.75
2023-03-06T18:41:18.564Z,100198.09
2023-03-06T18:43:45.530Z,100192.66
2023-03-06T18:46:12.029Z,100189.94
2023-03-06T18:48:38.642Z,100180.75
2023-03-06T18:51:07.801Z,100177.44
2023-03-06T18:53:35.431Z,100174.72
2023-03-06T18:56:02.443Z,100175.78
2023-03-06T18:58:29.532Z,100181.06
2023-03-06T19:00:58.926Z,100169.63
2023-03-06T19:03:25.818Z,100160.81
2023-03-06T19:05:52.405Z,100160.56
2023-03-06T19:08:19.049Z,100150.81
2023-03-06T19:10:46.894Z,100144.53
2023-03-06T19:13:13.890Z,100139.94
2023-03-06T19:15:48.534Z,100145.13
2023-03-06T19:18:17.868Z,100136.88
2023-03-06T19:20:45.026Z,100131.47
2023-03-06T19:23:11.594Z,100126.84
2023-03-06T19:25:38.096Z,100128.97
2023-03-06T19:28:04.795Z,100130.69
2023-03-06T19:30:31.269Z,100129.06
2023-03-06T19:32:57.840Z,100128.69
2023-03-06T19:35:26.179Z,100130.41
2023-03-06T19:37:53.398Z,100112.81
2023-03-06T19:40:20.250Z,100114.63
2023-03-06T19:42:46.845Z,100118.00
2023-03-06T19:45:13.489Z,100116.34
2023-03-06T19:47:40.072Z,100102.22
2023-03-06T19:50:07.221Z,100112.69
2023-03-06T19:52:36.344Z,100111.47
2023-03-06T19:55:02.907Z,100104.19
2023-03-06T19:57:29.415Z,100096.72
2023-03-06T19:59:58.415Z,100099.91
2023-03-06T20:02:27.132Z,100082.94
2023-03-06T20:04:54.433Z,100083.56
2023-03-06T20:07:21.272Z,100073.97
2023-03-06T20:09:48.197Z,100067.81
2023-03-06T20:12:15.728Z,100056.63
2023-03-06T20:14:42.575Z,100062.34
2023-03-06T20:17:09.186Z,100049.00
2023-03-06T20:19:36.446Z,100046.53
2023-03-06T20:22:03.297Z,100047.34
2023-03-06T20:24:29.833Z,100046.09
2023-03-06T20:26:57.668Z,100033.59
2023-03-06T20:29:27.291Z,100026.59
2023-03-06T20:31:55.920Z,100015.09
2023-03-06T20:34:23.474Z,100022.59
2023-03-06T20:36:50.163Z,100023.38
2023-03-06T20:39:18.859Z,100011.63
2023-03-06T20:41:46.414Z,100003.63
2023-03-06T20:44:16.144Z,99988.31
2023-03-06T20:46:44.055Z,100009.53
2023-03-06T20:49:12.577Z,100010.88
2023-03-06T20:51:40.358Z,100000.78
2023-03-06T20:54:08.475Z,99982.22
2023-03-06T20:56:36.512Z,100003.28
2023-03-06T20:59:03.288Z,100000.34
2023-03-06T21:01:32.664Z,99997.34
2023-03-06T21:04:00.436Z,99998.41
2023-03-06T21:06:28.734Z,99998.41
2023-03-06T21:08:56.731Z,100002.06
2023-03-06T21:11:23.742Z,99994.56
2023-03-06T21:13:50.477Z,99990.56
2023-03-06T21:16:19.464Z,99985.81
2023-03-06T21:18:46.729Z,99996.56
2023-03-06T21:21:16.736Z,99993.72
2023-03-06T21:23:43.291Z,99979.63
2023-03-06T21:26:24.218Z,99984.34
2023-03-06T21:28:51.278Z,99981.06
2023-03-06T21:31:20.450Z,99973.53
2023-03-06T21:33:48.600Z,99968.09
2023-03-06T21:36:18.727Z,99959.84
2023-03-06T21:38:46.707Z,99962.69
2023-03-06T21:41:16.390Z,99964.56
2023-03-06T21:43:43.387Z,99954.34
2023-03-06T21:46:11.226Z,99954.69
2023-03-06T21:48:37.937Z,99956.38
2023-03-06T21:51:09.930Z,99947.63
2023-03-06T21:53:37.075Z,99940.19
2023-03-06T21:56:04.675Z,99946.31
2023-03-06T21:58:31.305Z,99950.94
2023-03-06T22:00:58.399Z,99952.00
2023-03-06T22:03:25.514Z,99960.13
2023-03-06T22:05:52.705Z,99943.03
2023-03-06T22:08:24.993Z,99936.78
2023-03-06T22:10:51.560Z,99925.47
2023-03-06T22:13:18.127Z,99916.31
2023-03-06T22:15:52.753Z,99914.16
2023-03-06T22:18:20.066Z,99913.72
2023-03-06T22:20:47.246Z,99912.91
2023-03-06T22:23:14.281Z,99910.41
2023-03-06T22:25:40.840Z,99902.41
2023-03-06T22:28:07.661Z,99907.84
2023-03-06T22:30:34.279Z,99904.91
2023-03-06T22:33:00.833Z,99922.22
2023-03-06T22:35:27.408Z,99911.13
2023-03-06T22:37:53.978Z,99913.03
2023-03-06T22:40:20.493Z,99917.03
2023-03-06T22:42:47.169Z,99913.72
2023-03-06T22:45:13.754Z,99912.06
2023-03-06T22:47:40.272Z,99911.25
2023-03-06T22:50:07.793Z,99904.78
2023-03-06T22:52:34.359Z,99902.88
2023-03-06T22:55:00.922Z,99904.78
2023-03-06T22:57:27.559Z,99903.72
2023-03-06T22:59:54.033Z,99908.88
2023-03-06T23:02:20.539Z,99906.44
2023-03-06T23:04:53.516Z,99915.81
2023-03-06T23:07:21.120Z,99901.44
2023-03-06T23:09:48.660Z,99907.84
2023-03-06T23:12:33.827Z,99909.72
2023-03-06T23:15:19.162Z,99908.31
2023-03-06T23:18:04.452Z,99911.03
2023-03-06T23:20:49.757Z,99903.72
2023-03-06T23:23:35.863Z,99897.22
2023-03-06T23:26:04.270Z,99891.56
2023-03-06T23:28:31.021Z,99902.19
2023-03-06T23:30:57.585Z,99901.13
2023-03-06T23:33:24.442Z,99904.44
2023-03-06T23:35:51.035Z,99901.94
2023-03-06T23:38:17.614Z,99899.84
2023-03-06T23:40:44.264Z,99899.84
2023-03-06T23:43:10.818Z,99888.53
2023-03-06T23:45:37.409Z,99885.22
2023-03-06T23:48:07.242Z,99892.06
2023-03-06T23:50:33.763Z,99880.97
2023-03-06T23:53:00.251Z,99879.78
2023-03-06T23:55:26.821Z,99877.69
2023-03-06T23:57:53.333Z,99880.97
